sensor_id;sensor_type;location;lat;lon;timestamp;temperature;humidity
66928;DHT22;59882;45.624;11.698;2022-12-17T00:01:01;7.50;90.60
66928;DHT22;59882;45.624;11.698;2022-12-17T00:03:45;7.60;90.60
66928;DHT22;59882;45.624;11.698;2022-12-17T00:06:30;7.60;90.60
66928;DHT22;59882;45.624;11.698;2022-12-17T00:09:14;7.60;90.70
66928;DHT22;59882;45.624;11.698;2022-12-17T00:11:58;7.60;90.60
66928;DHT22;59882;45.624;11.698;2022-12-17T00:14:42;7.60;90.50
66928;DHT22;59882;45.624;11.698;2022-12-17T00:17:27;7.60;90.40
66928;DHT22;59882;45.624;11.698;2022-12-17T00:20:11;7.60;90.30
66928;DHT22;59882;45.624;11.698;2022-12-17T00:23:03;7.50;90.20
66928;DHT22;59882;45.624;11.698;2022-12-17T00:25:52;7.50;90.30
66928;DHT22;59882;45.624;11.698;2022-12-17T00:28:36;7.60;90.20
66928;DHT22;59882;45.624;11.698;2022-12-17T00:31:21;7.60;90.20
66928;DHT22;59882;45.624;11.698;2022-12-17T00:34:05;7.50;90.20
66928;DHT22;59882;45.624;11.698;2022-12-17T00:36:49;7.60;90.30
66928;DHT22;59882;45.624;11.698;2022-12-17T00:39:34;7.50;90.20
66928;DHT22;59882;45.624;11.698;2022-12-17T00:42:18;7.60;90.20
66928;DHT22;59882;45.624;11.698;2022-12-17T00:45:02;7.60;90.20
66928;DHT22;59882;45.624;11.698;2022-12-17T00:47:47;7.60;90.10
66928;DHT22;59882;45.624;11.698;2022-12-17T00:50:31;7.50;90.10
66928;DHT22;59882;45.624;11.698;2022-12-17T00:53:15;7.50;90.10
66928;DHT22;59882;45.624;11.698;2022-12-17T00:55:59;7.50;90.10
66928;DHT22;59882;45.624;11.698;2022-12-17T00:58:44;7.50;90.10
66928;DHT22;59882;45.624;11.698;2022-12-17T01:01:28;7.50;90.10
66928;DHT22;59882;45.624;11.698;2022-12-17T01:04:12;7.50;90.10
66928;DHT22;59882;45.624;11.698;2022-12-17T01:06:56;7.50;90.10
66928;DHT22;59882;45.624;11.698;2022-12-17T01:09:40;7.50;90.10
66928;DHT22;59882;45.624;11.698;2022-12-17T01:12:24;7.50;90.30
66928;DHT22;59882;45.624;11.698;2022-12-17T01:15:08;7.50;90.40
66928;DHT22;59882;45.624;11.698;2022-12-17T01:17:52;7.50;90.40
66928;DHT22;59882;45.624;11.698;2022-12-17T01:20:37;7.50;90.40
66928;DHT22;59882;45.624;11.698;2022-12-17T01:23:21;7.50;90.30
66928;DHT22;59882;45.624;11.698;2022-12-17T01:26:05;7.50;90.30
66928;DHT22;59882;45.624;11.698;2022-12-17T01:28:49;7.50;90.30
66928;DHT22;59882;45.624;11.698;2022-12-17T01:31:33;7.60;90.30
66928;DHT22;59882;45.624;11.698;2022-12-17T01:34:17;7.50;90.30
66928;DHT22;59882;45.624;11.698;2022-12-17T01:37:01;7.60;90.30
66928;DHT22;59882;45.624;11.698;2022-12-17T01:39:45;7.60;90.30
66928;DHT22;59882;45.624;11.698;2022-12-17T01:42:44;7.60;90.30
66928;DHT22;59882;45.624;11.698;2022-12-17T01:45:38;7.60;90.20
66928;DHT22;59882;45.624;11.698;2022-12-17T01:48:30;7.60;90.10
66928;DHT22;59882;45.624;11.698;2022-12-17T01:51:15;7.60;90.10
66928;DHT22;59882;45.624;11.698;2022-12-17T01:54:01;7.60;90.20
66928;DHT22;59882;45.624;11.698;2022-12-17T01:56:45;7.60;90.10
66928;DHT22;59882;45.624;11.698;2022-12-17T01:59:59;7.60;90.10
66928;DHT22;59882;45.624;11.698;2022-12-17T02:02:44;7.60;90.10
66928;DHT22;59882;45.624;11.698;2022-12-17T02:17:37;7.50;89.90
66928;DHT22;59882;45.624;11.698;2022-12-17T02:20:41;7.50;89.90
66928;DHT22;59882;45.624;11.698;2022-12-17T02:29:17;7.50;90.00
66928;DHT22;59882;45.624;11.698;2022-12-17T02:32:03;7.50;90.00
66928;DHT22;59882;45.624;11.698;2022-12-17T02:34:49;7.50;90.00
66928;DHT22;59882;45.624;11.698;2022-12-17T02:37:33;7.50;89.90
66928;DHT22;59882;45.624;11.698;2022-12-17T02:40:19;7.50;89.90
66928;DHT22;59882;45.624;11.698;2022-12-17T02:43:06;7.40;90.00
66928;DHT22;59882;45.624;11.698;2022-12-17T02:45:52;7.50;90.00
66928;DHT22;59882;45.624;11.698;2022-12-17T02:48:36;7.50;90.00
66928;DHT22;59882;45.624;11.698;2022-12-17T02:51:21;7.40;90.10
66928;DHT22;59882;45.624;11.698;2022-12-17T02:54:07;7.40;90.10
66928;DHT22;59882;45.624;11.698;2022-12-17T02:56:51;7.40;90.20
66928;DHT22;59882;45.624;11.698;2022-12-17T02:59:35;7.40;90.30
66928;DHT22;59882;45.624;11.698;2022-12-17T03:02:19;7.50;90.40
66928;DHT22;59882;45.624;11.698;2022-12-17T03:05:03;7.40;90.40
66928;DHT22;59882;45.624;11.698;2022-12-17T03:07:48;7.40;90.40
66928;DHT22;59882;45.624;11.698;2022-12-17T03:10:32;7.40;90.40
66928;DHT22;59882;45.624;11.698;2022-12-17T03:13:27;7.50;90.40
66928;DHT22;59882;45.624;11.698;2022-12-17T03:16:13;7.50;90.40
66928;DHT22;59882;45.624;11.698;2022-12-17T03:18:58;7.50;90.40
66928;DHT22;59882;45.624;11.698;2022-12-17T03:21:42;7.50;90.30
66928;DHT22;59882;45.624;11.698;2022-12-17T03:24:40;7.50;90.30
66928;DHT22;59882;45.624;11.698;2022-12-17T03:27:25;7.60;90.30
66928;DHT22;59882;45.624;11.698;2022-12-17T03:30:09;7.60;90.40
66928;DHT22;59882;45.624;11.698;2022-12-17T03:32:54;7.60;90.40
66928;DHT22;59882;45.624;11.698;2022-12-17T03:35:38;7.60;90.40
66928;DHT22;59882;45.624;11.698;2022-12-17T03:38:22;7.60;90.40
66928;DHT22;59882;45.624;11.698;2022-12-17T03:41:06;7.60;90.40
66928;DHT22;59882;45.624;11.698;2022-12-17T03:43:50;7.60;90.30
66928;DHT22;59882;45.624;11.698;2022-12-17T03:46:34;7.60;90.40
66928;DHT22;59882;45.624;11.698;2022-12-17T03:49:18;7.60;90.40
66928;DHT22;59882;45.624;11.698;2022-12-17T03:52:02;7.60;90.30
66928;DHT22;59882;45.624;11.698;2022-12-17T03:54:46;7.60;90.30
66928;DHT22;59882;45.624;11.698;2022-12-17T03:57:30;7.70;90.40
66928;DHT22;59882;45.624;11.698;2022-12-17T04:00:14;7.60;90.40
66928;DHT22;59882;45.624;11.698;2022-12-17T04:02:59;7.70;90.40
66928;DHT22;59882;45.624;11.698;2022-12-17T04:05:43;7.70;90.40
66928;DHT22;59882;45.624;11.698;2022-12-17T04:08:27;7.70;90.40
66928;DHT22;59882;45.624;11.698;2022-12-17T04:11:11;7.70;90.40
66928;DHT22;59882;45.624;11.698;2022-12-17T04:13:55;7.70;90.40
66928;DHT22;59882;45.624;11.698;2022-12-17T04:16:39;7.70;90.30
66928;DHT22;59882;45.624;11.698;2022-12-17T04:19:23;7.70;90.30
66928;DHT22;59882;45.624;11.698;2022-12-17T04:22:07;7.70;90.30
66928;DHT22;59882;45.624;11.698;2022-12-17T04:24:51;7.70;90.30
66928;DHT22;59882;45.624;11.698;2022-12-17T04:27:35;7.70;90.20
66928;DHT22;59882;45.624;11.698;2022-12-17T04:30:19;7.70;90.20
66928;DHT22;59882;45.624;11.698;2022-12-17T04:33:03;7.70;90.20
66928;DHT22;59882;45.624;11.698;2022-12-17T04:35:47;7.70;90.20
66928;DHT22;59882;45.624;11.698;2022-12-17T04:38:31;7.60;90.20
66928;DHT22;59882;45.624;11.698;2022-12-17T04:41:15;7.60;90.10
66928;DHT22;59882;45.624;11.698;2022-12-17T04:43:59;7.60;90.10
66928;DHT22;59882;45.624;11.698;2022-12-17T04:46:43;7.60;90.00
66928;DHT22;59882;45.624;11.698;2022-12-17T04:49:27;7.50;90.00
66928;DHT22;59882;45.624;11.698;2022-12-17T04:52:11;7.50;90.00
66928;DHT22;59882;45.624;11.698;2022-12-17T04:54:56;7.50;90.10
66928;DHT22;59882;45.624;11.698;2022-12-17T04:57:40;7.50;90.10
66928;DHT22;59882;45.624;11.698;2022-12-17T05:00:24;7.50;90.10
66928;DHT22;59882;45.624;11.698;2022-12-17T05:03:13;7.50;90.10
66928;DHT22;59882;45.624;11.698;2022-12-17T05:05:58;7.50;90.00
66928;DHT22;59882;45.624;11.698;2022-12-17T05:08:42;7.50;89.90
66928;DHT22;59882;45.624;11.698;2022-12-17T05:11:27;7.50;89.80
66928;DHT22;59882;45.624;11.698;2022-12-17T05:14:11;7.40;89.60
66928;DHT22;59882;45.624;11.698;2022-12-17T05:16:55;7.40;89.70
66928;DHT22;59882;45.624;11.698;2022-12-17T05:19:39;7.40;89.60
66928;DHT22;59882;45.624;11.698;2022-12-17T05:22:23;7.40;89.60
66928;DHT22;59882;45.624;11.698;2022-12-17T05:25:07;7.30;89.60
66928;DHT22;59882;45.624;11.698;2022-12-17T05:27:51;7.30;89.50
66928;DHT22;59882;45.624;11.698;2022-12-17T05:30:35;7.30;89.50
66928;DHT22;59882;45.624;11.698;2022-12-17T05:33:19;7.30;89.50
66928;DHT22;59882;45.624;11.698;2022-12-17T05:36:03;7.20;89.50
66928;DHT22;59882;45.624;11.698;2022-12-17T05:38:48;7.20;89.50
66928;DHT22;59882;45.624;11.698;2022-12-17T05:41:33;7.30;89.50
66928;DHT22;59882;45.624;11.698;2022-12-17T05:44:17;7.20;89.50
66928;DHT22;59882;45.624;11.698;2022-12-17T05:47:01;7.20;89.40
66928;DHT22;59882;45.624;11.698;2022-12-17T05:49:45;7.30;89.40
66928;DHT22;59882;45.624;11.698;2022-12-17T05:52:29;7.30;89.30
66928;DHT22;59882;45.624;11.698;2022-12-17T05:55:14;7.20;89.30
66928;DHT22;59882;45.624;11.698;2022-12-17T05:58:08;7.20;89.30
66928;DHT22;59882;45.624;11.698;2022-12-17T06:00:58;7.20;89.30
66928;DHT22;59882;45.624;11.698;2022-12-17T06:03:42;7.20;89.40
66928;DHT22;59882;45.624;11.698;2022-12-17T06:06:26;7.20;89.30
66928;DHT22;59882;45.624;11.698;2022-12-17T06:09:11;7.20;89.40
66928;DHT22;59882;45.624;11.698;2022-12-17T06:11:55;7.20;89.50
66928;DHT22;59882;45.624;11.698;2022-12-17T06:14:39;7.20;89.50
66928;DHT22;59882;45.624;11.698;2022-12-17T06:17:23;7.20;89.50
66928;DHT22;59882;45.624;11.698;2022-12-17T06:20:07;7.20;89.50
66928;DHT22;59882;45.624;11.698;2022-12-17T06:23:12;7.20;89.60
66928;DHT22;59882;45.624;11.698;2022-12-17T06:25:56;7.20;89.50
66928;DHT22;59882;45.624;11.698;2022-12-17T06:28:41;7.20;89.60
66928;DHT22;59882;45.624;11.698;2022-12-17T06:31:26;7.20;89.70
66928;DHT22;59882;45.624;11.698;2022-12-17T06:34:09;7.20;89.70
66928;DHT22;59882;45.624;11.698;2022-12-17T06:36:53;7.20;89.70
66928;DHT22;59882;45.624;11.698;2022-12-17T06:39:37;7.20;89.70
66928;DHT22;59882;45.624;11.698;2022-12-17T06:42:22;7.20;89.60
66928;DHT22;59882;45.624;11.698;2022-12-17T06:45:06;7.20;89.60
66928;DHT22;59882;45.624;11.698;2022-12-17T06:47:51;7.20;89.60
66928;DHT22;59882;45.624;11.698;2022-12-17T06:50:35;7.20;89.60
66928;DHT22;59882;45.624;11.698;2022-12-17T06:53:19;7.10;89.60
66928;DHT22;59882;45.624;11.698;2022-12-17T06:56:03;7.10;89.60
66928;DHT22;59882;45.624;11.698;2022-12-17T06:58:48;7.10;89.70
66928;DHT22;59882;45.624;11.698;2022-12-17T07:01:32;7.10;89.80
66928;DHT22;59882;45.624;11.698;2022-12-17T07:04:16;7.10;89.70
66928;DHT22;59882;45.624;11.698;2022-12-17T07:07:01;7.10;89.80
66928;DHT22;59882;45.624;11.698;2022-12-17T07:09:55;7.20;89.80
66928;DHT22;59882;45.624;11.698;2022-12-17T07:12:39;7.20;89.80
66928;DHT22;59882;45.624;11.698;2022-12-17T07:15:31;7.20;89.90
66928;DHT22;59882;45.624;11.698;2022-12-17T07:18:16;7.20;89.90
66928;DHT22;59882;45.624;11.698;2022-12-17T07:21:00;7.20;89.90
66928;DHT22;59882;45.624;11.698;2022-12-17T07:23:44;7.20;89.90
66928;DHT22;59882;45.624;11.698;2022-12-17T07:26:28;7.20;89.90
66928;DHT22;59882;45.624;11.698;2022-12-17T07:29:12;7.20;89.90
66928;DHT22;59882;45.624;11.698;2022-12-17T07:31:56;7.20;90.00
66928;DHT22;59882;45.624;11.698;2022-12-17T07:34:40;7.30;90.00
66928;DHT22;59882;45.624;11.698;2022-12-17T07:37:24;7.30;90.00
66928;DHT22;59882;45.624;11.698;2022-12-17T07:40:09;7.30;90.20
66928;DHT22;59882;45.624;11.698;2022-12-17T07:42:53;7.30;90.20
66928;DHT22;59882;45.624;11.698;2022-12-17T07:45:37;7.30;90.20
66928;DHT22;59882;45.624;11.698;2022-12-17T07:48:21;7.30;90.20
66928;DHT22;59882;45.624;11.698;2022-12-17T07:51:05;7.40;90.30
66928;DHT22;59882;45.624;11.698;2022-12-17T07:53:49;7.40;90.30
66928;DHT22;59882;45.624;11.698;2022-12-17T07:56:33;7.40;90.50
66928;DHT22;59882;45.624;11.698;2022-12-17T07:59:17;7.40;90.60
66928;DHT22;59882;45.624;11.698;2022-12-17T08:02:01;7.40;90.70
66928;DHT22;59882;45.624;11.698;2022-12-17T08:04:45;7.40;90.80
66928;DHT22;59882;45.624;11.698;2022-12-17T08:07:29;7.40;90.80
66928;DHT22;59882;45.624;11.698;2022-12-17T08:10:13;7.50;90.90
66928;DHT22;59882;45.624;11.698;2022-12-17T08:12:59;7.50;91.00
66928;DHT22;59882;45.624;11.698;2022-12-17T08:15:44;7.50;91.10
66928;DHT22;59882;45.624;11.698;2022-12-17T08:18:29;7.60;90.90
66928;DHT22;59882;45.624;11.698;2022-12-17T08:21:14;7.60;91.00
66928;DHT22;59882;45.624;11.698;2022-12-17T08:23:58;7.60;90.90
66928;DHT22;59882;45.624;11.698;2022-12-17T08:26:42;7.70;90.90
66928;DHT22;59882;45.624;11.698;2022-12-17T08:29:26;7.70;90.80
66928;DHT22;59882;45.624;11.698;2022-12-17T08:32:10;7.80;90.80
66928;DHT22;59882;45.624;11.698;2022-12-17T08:34:54;7.80;90.80
66928;DHT22;59882;45.624;11.698;2022-12-17T08:37:38;7.80;90.70
66928;DHT22;59882;45.624;11.698;2022-12-17T08:40:22;7.80;90.70
66928;DHT22;59882;45.624;11.698;2022-12-17T08:43:06;7.80;90.60
66928;DHT22;59882;45.624;11.698;2022-12-17T08:45:51;7.90;90.60
66928;DHT22;59882;45.624;11.698;2022-12-17T08:48:36;7.90;90.70
66928;DHT22;59882;45.624;11.698;2022-12-17T08:51:21;7.90;90.70
66928;DHT22;59882;45.624;11.698;2022-12-17T08:54:05;7.90;90.80
66928;DHT22;59882;45.624;11.698;2022-12-17T08:56:49;7.90;90.80
66928;DHT22;59882;45.624;11.698;2022-12-17T08:59:33;8.00;90.70
66928;DHT22;59882;45.624;11.698;2022-12-17T09:02:17;8.00;90.80
66928;DHT22;59882;45.624;11.698;2022-12-17T09:05:01;8.10;90.70
66928;DHT22;59882;45.624;11.698;2022-12-17T09:07:45;8.00;90.80
66928;DHT22;59882;45.624;11.698;2022-12-17T09:10:29;8.10;90.70
66928;DHT22;59882;45.624;11.698;2022-12-17T09:13:13;8.10;90.80
66928;DHT22;59882;45.624;11.698;2022-12-17T09:15:57;8.10;90.70
66928;DHT22;59882;45.624;11.698;2022-12-17T09:18:42;8.20;90.70
66928;DHT22;59882;45.624;11.698;2022-12-17T09:21:28;8.20;90.70
66928;DHT22;59882;45.624;11.698;2022-12-17T09:24:12;8.20;90.70
66928;DHT22;59882;45.624;11.698;2022-12-17T09:26:57;8.20;90.70
66928;DHT22;59882;45.624;11.698;2022-12-17T09:29:41;8.30;90.70
66928;DHT22;59882;45.624;11.698;2022-12-17T09:32:26;8.30;90.60
66928;DHT22;59882;45.624;11.698;2022-12-17T09:35:10;8.30;90.40
66928;DHT22;59882;45.624;11.698;2022-12-17T09:37:55;8.40;90.40
66928;DHT22;59882;45.624;11.698;2022-12-17T09:40:40;8.40;90.30
66928;DHT22;59882;45.624;11.698;2022-12-17T09:43:35;8.40;90.00
66928;DHT22;59882;45.624;11.698;2022-12-17T09:46:26;8.40;90.00
66928;DHT22;59882;45.624;11.698;2022-12-17T09:49:23;8.40;89.90
66928;DHT22;59882;45.624;11.698;2022-12-17T09:58:22;8.60;90.10
66928;DHT22;59882;45.624;11.698;2022-12-17T10:01:22;8.70;90.00
66928;DHT22;59882;45.624;11.698;2022-12-17T10:04:15;8.70;89.90
66928;DHT22;59882;45.624;11.698;2022-12-17T10:07:01;8.80;89.90
66928;DHT22;59882;45.624;11.698;2022-12-17T10:09:49;8.80;89.50
66928;DHT22;59882;45.624;11.698;2022-12-17T10:12:33;8.80;89.50
66928;DHT22;59882;45.624;11.698;2022-12-17T10:15:18;8.90;89.50
66928;DHT22;59882;45.624;11.698;2022-12-17T10:18:08;8.90;89.50
66928;DHT22;59882;45.624;11.698;2022-12-17T10:21:00;9.00;89.40
66928;DHT22;59882;45.624;11.698;2022-12-17T10:23:45;9.10;89.30
66928;DHT22;59882;45.624;11.698;2022-12-17T10:26:31;9.10;89.00
66928;DHT22;59882;45.624;11.698;2022-12-17T10:29:25;9.10;89.00
66928;DHT22;59882;45.624;11.698;2022-12-17T10:34:53;9.30;88.90
66928;DHT22;59882;45.624;11.698;2022-12-17T10:37:37;9.30;88.80
66928;DHT22;59882;45.624;11.698;2022-12-17T10:40:25;9.30;88.40
66928;DHT22;59882;45.624;11.698;2022-12-17T10:43:29;9.40;88.50
66928;DHT22;59882;45.624;11.698;2022-12-17T10:46:27;9.40;88.60
66928;DHT22;59882;45.624;11.698;2022-12-17T10:49:20;9.50;88.30
66928;DHT22;59882;45.624;11.698;2022-12-17T10:52:27;9.50;88.10
66928;DHT22;59882;45.624;11.698;2022-12-17T10:55:24;9.60;88.20
66928;DHT22;59882;45.624;11.698;2022-12-17T10:58:19;9.60;88.20
66928;DHT22;59882;45.624;11.698;2022-12-17T11:01:06;9.70;88.00
66928;DHT22;59882;45.624;11.698;2022-12-17T11:03:55;9.70;87.90
66928;DHT22;59882;45.624;11.698;2022-12-17T11:09:40;9.80;87.30
66928;DHT22;59882;45.624;11.698;2022-12-17T11:13:27;9.80;86.60
66928;DHT22;59882;45.624;11.698;2022-12-17T11:15:44;9.80;86.90
66928;DHT22;59882;45.624;11.698;2022-12-17T11:21:35;9.90;86.40
66928;DHT22;59882;45.624;11.698;2022-12-17T11:24:28;9.90;86.40
66928;DHT22;59882;45.624;11.698;2022-12-17T11:27:19;10.00;86.20
66928;DHT22;59882;45.624;11.698;2022-12-17T11:30:15;10.10;85.60
66928;DHT22;59882;45.624;11.698;2022-12-17T11:33:21;10.10;85.40
66928;DHT22;59882;45.624;11.698;2022-12-17T11:42:15;10.20;85.20
66928;DHT22;59882;45.624;11.698;2022-12-17T11:45:36;10.20;85.50
66928;DHT22;59882;45.624;11.698;2022-12-17T11:48:29;10.30;85.30
66928;DHT22;59882;45.624;11.698;2022-12-17T11:51:40;10.30;84.80
66928;DHT22;59882;45.624;11.698;2022-12-17T11:58:03;10.40;84.10
66928;DHT22;59882;45.624;11.698;2022-12-17T12:01:16;10.40;84.00
66928;DHT22;59882;45.624;11.698;2022-12-17T12:04:36;10.50;84.10
66928;DHT22;59882;45.624;11.698;2022-12-17T12:07:47;10.60;84.10
66928;DHT22;59882;45.624;11.698;2022-12-17T12:11:01;10.60;83.70
66928;DHT22;59882;45.624;11.698;2022-12-17T12:14:16;10.60;83.10
66928;DHT22;59882;45.624;11.698;2022-12-17T12:20:06;10.60;83.10
66928;DHT22;59882;45.624;11.698;2022-12-17T12:23:28;10.60;83.00
66928;DHT22;59882;45.624;11.698;2022-12-17T12:26:26;10.60;81.90
66928;DHT22;59882;45.624;11.698;2022-12-17T12:29:36;10.60;82.70
66928;DHT22;59882;45.624;11.698;2022-12-17T12:32:57;10.60;82.50
66928;DHT22;59882;45.624;11.698;2022-12-17T12:35:45;10.60;82.40
66928;DHT22;59882;45.624;11.698;2022-12-17T12:38:33;10.60;82.50
66928;DHT22;59882;45.624;11.698;2022-12-17T12:41:35;10.60;82.80
66928;DHT22;59882;45.624;11.698;2022-12-17T12:44:32;10.60;83.00
66928;DHT22;59882;45.624;11.698;2022-12-17T12:47:24;10.60;83.00
66928;DHT22;59882;45.624;11.698;2022-12-17T12:53:02;10.60;82.40
66928;DHT22;59882;45.624;11.698;2022-12-17T12:55:47;10.60;82.70
66928;DHT22;59882;45.624;11.698;2022-12-17T12:58:38;10.60;81.70
66928;DHT22;59882;45.624;11.698;2022-12-17T13:01:31;10.60;81.20
66928;DHT22;59882;45.624;11.698;2022-12-17T13:04:36;10.50;81.80
66928;DHT22;59882;45.624;11.698;2022-12-17T13:07:26;10.50;81.80
66928;DHT22;59882;45.624;11.698;2022-12-17T13:09:55;10.50;82.00
66928;DHT22;59882;45.624;11.698;2022-12-17T13:12:28;10.40;81.80
66928;DHT22;59882;45.624;11.698;2022-12-17T13:17:38;10.40;81.80
66928;DHT22;59882;45.624;11.698;2022-12-17T13:20:32;10.40;81.40
66928;DHT22;59882;45.624;11.698;2022-12-17T13:25:36;10.40;82.20
66928;DHT22;59882;45.624;11.698;2022-12-17T13:28:02;10.30;82.20
66928;DHT22;59882;45.624;11.698;2022-12-17T13:30:46;10.30;82.10
66928;DHT22;59882;45.624;11.698;2022-12-17T13:33:23;10.30;82.20
66928;DHT22;59882;45.624;11.698;2022-12-17T13:41:10;10.30;82.40
66928;DHT22;59882;45.624;11.698;2022-12-17T13:46:18;10.30;82.50
66928;DHT22;59882;45.624;11.698;2022-12-17T13:48:58;10.30;82.40
66928;DHT22;59882;45.624;11.698;2022-12-17T13:51:27;10.30;82.40
66928;DHT22;59882;45.624;11.698;2022-12-17T13:53:58;10.20;82.00
66928;DHT22;59882;45.624;11.698;2022-12-17T13:58:56;10.20;82.10
66928;DHT22;59882;45.624;11.698;2022-12-17T14:01:22;10.20;82.40
66928;DHT22;59882;45.624;11.698;2022-12-17T14:04:00;10.20;82.40
66928;DHT22;59882;45.624;11.698;2022-12-17T14:06:34;10.10;82.50
66928;DHT22;59882;45.624;11.698;2022-12-17T14:09:01;10.10;82.40
66928;DHT22;59882;45.624;11.698;2022-12-17T14:11:27;10.10;82.00
66928;DHT22;59882;45.624;11.698;2022-12-17T14:16:50;10.00;82.30
66928;DHT22;59882;45.624;11.698;2022-12-17T14:19:16;10.00;82.40
66928;DHT22;59882;45.624;11.698;2022-12-17T14:21:42;10.00;82.50
66928;DHT22;59882;45.624;11.698;2022-12-17T14:24:11;10.00;82.60
66928;DHT22;59882;45.624;11.698;2022-12-17T14:26:52;10.00;82.60
66928;DHT22;59882;45.624;11.698;2022-12-17T14:29:26;10.00;82.60
66928;DHT22;59882;45.624;11.698;2022-12-17T14:31:58;10.00;82.40
66928;DHT22;59882;45.624;11.698;2022-12-17T14:34:24;9.90;82.20
66928;DHT22;59882;45.624;11.698;2022-12-17T14:36:58;10.00;82.30
66928;DHT22;59882;45.624;11.698;2022-12-17T14:39:29;9.90;82.30
66928;DHT22;59882;45.624;11.698;2022-12-17T14:41:57;9.90;82.30
66928;DHT22;59882;45.624;11.698;2022-12-17T14:44:52;9.90;82.40
66928;DHT22;59882;45.624;11.698;2022-12-17T14:50:06;9.90;81.90
66928;DHT22;59882;45.624;11.698;2022-12-17T14:52:52;9.90;80.80
66928;DHT22;59882;45.624;11.698;2022-12-17T14:57:53;9.90;80.80
66928;DHT22;59882;45.624;11.698;2022-12-17T15:00:19;9.80;79.60
66928;DHT22;59882;45.624;11.698;2022-12-17T15:02:50;9.80;79.40
66928;DHT22;59882;45.624;11.698;2022-12-17T15:05:17;9.80;79.80
66928;DHT22;59882;45.624;11.698;2022-12-17T15:07:43;9.80;79.90
66928;DHT22;59882;45.624;11.698;2022-12-17T15:10:11;9.70;79.70
66928;DHT22;59882;45.624;11.698;2022-12-17T15:12:37;9.80;79.50
66928;DHT22;59882;45.624;11.698;2022-12-17T15:15:04;9.70;79.70
66928;DHT22;59882;45.624;11.698;2022-12-17T15:17:30;9.70;79.80
66928;DHT22;59882;45.624;11.698;2022-12-17T15:19:56;9.70;79.90
66928;DHT22;59882;45.624;11.698;2022-12-17T15:22:21;9.60;79.90
66928;DHT22;59882;45.624;11.698;2022-12-17T15:24:47;9.60;79.10
66928;DHT22;59882;45.624;11.698;2022-12-17T15:27:14;9.60;77.80
66928;DHT22;59882;45.624;11.698;2022-12-17T15:29:41;9.60;78.50
66928;DHT22;59882;45.624;11.698;2022-12-17T15:32:16;9.50;78.60
66928;DHT22;59882;45.624;11.698;2022-12-17T15:34:42;9.50;77.80
66928;DHT22;59882;45.624;11.698;2022-12-17T15:37:09;9.40;75.60
66928;DHT22;59882;45.624;11.698;2022-12-17T15:39:34;9.40;76.30
66928;DHT22;59882;45.624;11.698;2022-12-17T15:42:00;9.40;77.00
66928;DHT22;59882;45.624;11.698;2022-12-17T15:44:44;9.40;77.50
66928;DHT22;59882;45.624;11.698;2022-12-17T15:47:10;9.40;77.40
66928;DHT22;59882;45.624;11.698;2022-12-17T15:49:35;9.30;77.30
66928;DHT22;59882;45.624;11.698;2022-12-17T15:52:01;9.30;77.30
66928;DHT22;59882;45.624;11.698;2022-12-17T15:54:26;9.30;77.00
66928;DHT22;59882;45.624;11.698;2022-12-17T15:56:54;9.30;76.70
66928;DHT22;59882;45.624;11.698;2022-12-17T15:59:20;9.20;75.40
66928;DHT22;59882;45.624;11.698;2022-12-17T16:01:46;9.10;75.70
66928;DHT22;59882;45.624;11.698;2022-12-17T16:04:12;9.10;75.80
66928;DHT22;59882;45.624;11.698;2022-12-17T16:06:37;9.10;76.00
66928;DHT22;59882;45.624;11.698;2022-12-17T16:09:03;9.10;75.60
66928;DHT22;59882;45.624;11.698;2022-12-17T16:11:29;9.00;75.80
66928;DHT22;59882;45.624;11.698;2022-12-17T16:13:55;9.00;75.50
66928;DHT22;59882;45.624;11.698;2022-12-17T16:16:22;9.00;75.70
66928;DHT22;59882;45.624;11.698;2022-12-17T16:18:48;8.90;75.90
66928;DHT22;59882;45.624;11.698;2022-12-17T16:21:14;9.00;76.40
66928;DHT22;59882;45.624;11.698;2022-12-17T16:23:39;8.90;76.40
66928;DHT22;59882;45.624;11.698;2022-12-17T16:26:06;8.90;76.70
66928;DHT22;59882;45.624;11.698;2022-12-17T16:28:33;8.90;76.80
66928;DHT22;59882;45.624;11.698;2022-12-17T16:31:00;8.90;76.70
66928;DHT22;59882;45.624;11.698;2022-12-17T16:33:30;8.90;76.80
66928;DHT22;59882;45.624;11.698;2022-12-17T16:35:56;8.80;77.00
66928;DHT22;59882;45.624;11.698;2022-12-17T16:38:21;8.80;77.10
66928;DHT22;59882;45.624;11.698;2022-12-17T16:40:47;8.80;77.30
66928;DHT22;59882;45.624;11.698;2022-12-17T16:43:13;8.80;77.40
66928;DHT22;59882;45.624;11.698;2022-12-17T16:45:46;8.80;77.40
66928;DHT22;59882;45.624;11.698;2022-12-17T16:48:13;8.80;77.50
66928;DHT22;59882;45.624;11.698;2022-12-17T16:50:39;8.80;77.80
66928;DHT22;59882;45.624;11.698;2022-12-17T16:53:04;8.80;78.00
66928;DHT22;59882;45.624;11.698;2022-12-17T16:55:30;8.80;78.00
66928;DHT22;59882;45.624;11.698;2022-12-17T16:57:55;8.80;78.20
66928;DHT22;59882;45.624;11.698;2022-12-17T17:00:21;8.80;78.30
66928;DHT22;59882;45.624;11.698;2022-12-17T17:02:47;8.90;78.40
66928;DHT22;59882;45.624;11.698;2022-12-17T17:05:12;8.80;78.40
66928;DHT22;59882;45.624;11.698;2022-12-17T17:07:38;8.80;78.20
66928;DHT22;59882;45.624;11.698;2022-12-17T17:10:04;8.80;78.30
66928;DHT22;59882;45.624;11.698;2022-12-17T17:12:29;8.80;78.30
66928;DHT22;59882;45.624;11.698;2022-12-17T17:14:55;8.80;78.20
66928;DHT22;59882;45.624;11.698;2022-12-17T17:17:21;8.80;78.40
66928;DHT22;59882;45.624;11.698;2022-12-17T17:19:46;8.80;78.60
66928;DHT22;59882;45.624;11.698;2022-12-17T17:22:12;8.80;78.70
66928;DHT22;59882;45.624;11.698;2022-12-17T17:24:37;8.80;78.90
66928;DHT22;59882;45.624;11.698;2022-12-17T17:27:03;8.80;78.90
66928;DHT22;59882;45.624;11.698;2022-12-17T17:29:29;8.80;79.00
66928;DHT22;59882;45.624;11.698;2022-12-17T17:31:54;8.80;78.90
66928;DHT22;59882;45.624;11.698;2022-12-17T17:34:20;8.80;79.00
66928;DHT22;59882;45.624;11.698;2022-12-17T17:36:45;8.80;79.10
66928;DHT22;59882;45.624;11.698;2022-12-17T17:39:11;8.80;79.30
66928;DHT22;59882;45.624;11.698;2022-12-17T17:41:38;8.80;79.30
66928;DHT22;59882;45.624;11.698;2022-12-17T17:44:06;8.80;79.40
66928;DHT22;59882;45.624;11.698;2022-12-17T17:46:33;8.80;79.60
66928;DHT22;59882;45.624;11.698;2022-12-17T17:49:00;8.80;79.60
66928;DHT22;59882;45.624;11.698;2022-12-17T17:51:29;8.80;79.70
66928;DHT22;59882;45.624;11.698;2022-12-17T17:53:55;8.80;79.80
66928;DHT22;59882;45.624;11.698;2022-12-17T17:56:24;8.80;79.80
66928;DHT22;59882;45.624;11.698;2022-12-17T17:59:03;8.80;79.80
66928;DHT22;59882;45.624;11.698;2022-12-17T18:01:35;8.80;79.90
66928;DHT22;59882;45.624;11.698;2022-12-17T18:04:02;8.80;79.90
66928;DHT22;59882;45.624;11.698;2022-12-17T18:06:27;8.80;79.90
66928;DHT22;59882;45.624;11.698;2022-12-17T18:08:57;8.80;80.00
66928;DHT22;59882;45.624;11.698;2022-12-17T18:11:25;8.80;80.00